Time;durP1;ratioP1;P1;durP2;ratioP2;P2;SDS_P1;SDS_P2;PMS_P1;PMS_P2;Temp;Humidity;BMP_temperature;BMP_pressure;BME280_temperature;BME280_humidity;BME280_pressure;Samples;Min_cycle;Max_cycle;Signal;HPM_P1;HPM_P2
2023/08/18 00:00:50;;;;;;;11.90;10.60;;;;;;;18.28;100.00;101805.41;10496893;28;20071;-67
2023/08/18 00:05:51;;;;;;;13.05;11.77;;;;;;;18.28;100.00;101799.91;10495367;28;20071;-68
2023/08/18 00:10:51;;;;;;;17.25;11.23;;;;;;;18.30;100.00;101799.66;10495682;28;20032;-68
2023/08/18 00:15:52;;;;;;;18.65;12.32;;;;;;;18.32;100.00;101805.78;10496448;28;20112;-68
2023/08/18 00:20:52;;;;;;;18.98;11.27;;;;;;;18.31;100.00;101793.97;10497013;28;20039;-68
2023/08/18 00:25:52;;;;;;;12.45;11.15;;;;;;;18.35;100.00;101794.34;10478971;28;20040;-68
2023/08/18 00:30:53;;;;;;;13.15;11.85;;;;;;;18.42;100.00;101777.81;10494443;28;20041;-68
2023/08/18 00:35:53;;;;;;;13.05;11.38;;;;;;;18.41;100.00;101779.72;10494717;28;20145;-68
2023/08/18 00:40:55;;;;;;;16.55;11.38;;;;;;;18.35;100.00;101784.22;10496763;28;20043;-68
2023/08/18 00:45:56;;;;;;;19.25;12.25;;;;;;;18.29;100.00;101778.81;10495447;28;20036;-68
2023/08/18 00:50:56;;;;;;;16.60;12.32;;;;;;;18.23;100.00;101785.19;10495596;28;20448;-68
2023/08/18 00:55:57;;;;;;;16.20;12.90;;;;;;;18.19;100.00;101779.34;10495399;28;20036;-68
2023/08/18 01:00:57;;;;;;;20.38;12.70;;;;;;;18.15;100.00;101778.09;10495451;28;20039;-68
2023/08/18 01:05:58;;;;;;;13.48;11.57;;;;;;;18.13;100.00;101770.09;10492755;28;20087;-68
2023/08/18 01:11:17;;;;;;;13.98;11.10;;;;;;;18.18;100.00;101772.16;10493565;28;20067;-68
2023/08/18 01:16:23;;;;;;;13.05;11.13;;;;;;;18.22;100.00;101784.34;10494907;28;20642;-68
2023/08/18 01:21:24;;;;;;;11.43;10.27;;;;;;;18.26;100.00;101776.50;10494704;28;20062;-68
2023/08/18 01:26:25;;;;;;;14.45;11.63;;;;;;;18.29;100.00;101776.06;10494023;28;20550;-68
2023/08/18 01:31:28;;;;;;;11.82;9.85;;;;;;;18.28;100.00;101771.63;10494197;28;20033;-68
2023/08/18 01:36:32;;;;;;;13.88;10.00;;;;;;;18.23;100.00;101763.25;10497137;28;20033;-68
2023/08/18 01:41:33;;;;;;;14.20;11.45;;;;;;;18.13;100.00;101752.81;10502536;28;20035;-68
2023/08/18 01:46:33;;;;;;;12.82;10.35;;;;;;;18.02;100.00;101745.34;10484221;28;20048;-68
2023/08/18 01:51:33;;;;;;;11.70;9.70;;;;;;;17.90;100.00;101748.00;10500698;28;20078;-68
2023/08/18 01:56:34;;;;;;;14.45;10.75;;;;;;;17.87;100.00;101752.03;10502032;28;20472;-68
2023/08/18 02:01:34;;;;;;;10.57;9.25;;;;;;;17.86;100.00;101742.09;10498993;28;20033;-68
2023/08/18 02:06:35;;;;;;;11.98;9.73;;;;;;;17.88;100.00;101750.94;10500754;28;20035;-68
2023/08/18 02:11:35;;;;;;;10.48;9.38;;;;;;;17.76;100.00;101739.00;10499177;28;20429;-68
2023/08/18 02:16:36;;;;;;;11.07;9.23;;;;;;;17.63;100.00;101731.75;10500685;28;20043;-68
2023/08/18 02:21:37;;;;;;;11.35;10.00;;;;;;;17.56;100.00;101730.16;10501515;28;20129;-67
2023/08/18 02:26:38;;;;;;;15.82;9.52;;;;;;;17.61;100.00;101736.63;10500191;28;20040;-68
2023/08/18 02:31:38;;;;;;;12.20;9.63;;;;;;;17.61;100.00;101733.03;10500050;28;20067;-68
2023/08/18 02:36:39;;;;;;;10.70;8.90;;;;;;;17.64;100.00;101735.31;10499027;28;20097;-68
2023/08/18 02:41:39;;;;;;;10.38;9.18;;;;;;;17.62;100.00;101715.56;10499322;28;20048;-68
2023/08/18 02:46:39;;;;;;;12.27;8.60;;;;;;;17.51;100.00;101697.94;10497676;28;20040;-68
2023/08/18 02:51:40;;;;;;;12.18;10.80;;;;;;;17.29;100.00;101697.47;10500137;28;20109;-68
2023/08/18 02:56:40;;;;;;;10.93;9.82;;;;;;;17.08;100.00;101685.03;10500606;28;20578;-68
2023/08/18 03:01:41;;;;;;;15.13;10.07;;;;;;;16.93;100.00;101682.59;10497931;28;20127;-67
2023/08/18 03:06:42;;;;;;;10.90;9.80;;;;;;;16.89;100.00;101686.84;10480368;28;20044;-68
2023/08/18 03:11:43;;;;;;;13.52;10.90;;;;;;;16.75;100.00;101671.56;10496769;28;20048;-68
2023/08/18 03:16:43;;;;;;;13.25;11.48;;;;;;;16.79;100.00;101691.97;10498079;28;20357;-68
2023/08/18 03:21:44;;;;;;;12.18;10.93;;;;;;;16.93;100.00;101693.53;10498001;28;20111;-68
2023/08/18 03:26:44;;;;;;;13.27;9.70;;;;;;;17.03;100.00;101690.31;10497122;28;20083;-68
2023/08/18 03:31:44;;;;;;;15.95;10.63;;;;;;;17.14;100.00;101705.22;10497698;28;20115;-68
2023/08/18 03:36:46;;;;;;;17.55;12.40;;;;;;;17.15;100.00;101702.22;10497509;28;20033;-67
2023/08/18 03:41:46;;;;;;;13.00;11.70;;;;;;;17.23;100.00;101692.94;10497297;28;20036;-68
2023/08/18 03:46:46;;;;;;;11.93;10.27;;;;;;;17.27;100.00;101691.41;10497373;28;20032;-68
2023/08/18 03:51:47;;;;;;;20.95;13.10;;;;;;;17.32;100.00;101686.09;10496414;28;20383;-68
2023/08/18 03:56:47;;;;;;;15.38;11.50;;;;;;;17.30;100.00;101696.44;10496383;28;20036;-68
2023/08/18 04:01:48;;;;;;;13.23;11.85;;;;;;;17.24;100.00;101686.38;10495359;28;20037;-68
2023/08/18 04:06:48;;;;;;;14.23;11.65;;;;;;;17.15;100.00;101691.28;10496108;28;20075;-68
2023/08/18 04:11:49;;;;;;;18.15;13.23;;;;;;;17.18;100.00;101692.75;10496448;28;20078;-68
2023/08/18 04:16:50;;;;;;;26.73;12.40;;;;;;;17.16;100.00;101698.44;10494604;28;20142;-68
2023/08/18 04:21:50;;;;;;;16.27;13.25;;;;;;;17.22;100.00;101699.44;10496402;28;20060;-68
2023/08/18 04:26:59;;;;;;;14.82;12.05;;;;;;;17.26;100.00;101705.31;10496345;28;20373;-68
2023/08/18 04:31:59;;;;;;;23.65;10.98;;;;;;;17.24;100.00;101704.72;10495387;28;20028;-69
2023/08/18 04:37:00;;;;;;;12.18;10.85;;;;;;;17.21;100.00;101703.25;10494811;28;20467;-71
2023/08/18 04:42:00;;;;;;;12.25;10.98;;;;;;;17.15;100.00;101709.63;10495425;28;20036;-70
2023/08/18 04:47:03;;;;;;;13.13;11.82;;;;;;;17.11;100.00;101706.47;10495521;28;20040;-71
2023/08/18 04:52:05;;;;;;;14.38;12.25;;;;;;;17.12;100.00;101690.91;10495003;28;20068;-66
2023/08/18 04:57:07;;;;;;;13.85;11.30;;;;;;;17.12;100.00;101699.94;10496456;28;20415;-67
2023/08/18 05:02:07;;;;;;;16.42;10.05;;;;;;;17.10;100.00;101703.94;10494774;28;20053;-67
2023/08/18 05:07:08;;;;;;;10.35;9.35;;;;;;;17.02;100.00;101701.50;10495872;28;20104;-66
2023/08/18 05:12:09;;;;;;;14.48;12.30;;;;;;;16.93;100.00;101699.00;10498911;28;20037;-67
2023/08/18 05:17:09;;;;;;;19.45;9.63;;;;;;;16.93;100.00;101693.53;10503584;28;20032;-68
2023/08/18 05:22:10;;;;;;;11.48;10.18;;;;;;;16.89;100.00;101688.75;10503905;28;20120;-67
2023/08/18 05:27:10;;;;;;;9.80;8.85;;;;;;;16.90;100.00;101688.50;10503399;28;20028;-67
2023/08/18 05:32:11;;;;;;;10.18;8.52;;;;;;;16.93;100.00;101690.81;10503130;28;20044;-67
2023/08/18 05:37:11;;;;;;;10.05;9.20;;;;;;;16.96;100.00;101687.63;10501970;28;20115;-67
2023/08/18 05:42:12;;;;;;;10.82;9.15;;;;;;;17.01;100.00;101692.44;10501779;28;20336;-67
2023/08/18 05:47:12;;;;;;;10.45;9.35;;;;;;;17.10;100.00;101685.66;10501237;28;20464;-67
2023/08/18 05:52:12;;;;;;;11.10;8.52;;;;;;;17.16;100.00;101682.00;10483730;28;20179;-67
2023/08/18 05:57:13;;;;;;;11.27;9.30;;;;;;;17.31;100.00;101680.84;10499674;28;20079;-67
2023/08/18 06:02:13;;;;;;;11.02;9.30;;;;;;;17.31;100.00;101676.22;10500446;28;20149;-67
2023/08/18 06:07:14;;;;;;;16.88;10.02;;;;;;;17.47;100.00;101679.47;10500758;28;20109;-67
2023/08/18 06:12:14;;;;;;;9.43;8.52;;;;;;;17.58;100.00;101671.34;10499916;28;20032;-67
2023/08/18 06:17:15;;;;;;;11.88;9.73;;;;;;;17.77;100.00;101676.88;10483690;28;20444;-67
2023/08/18 06:22:15;;;;;;;15.00;10.02;;;;;;;17.80;100.00;101669.03;10499954;28;20044;-67
2023/08/18 06:27:15;;;;;;;12.95;9.80;;;;;;;17.88;100.00;101674.22;10498363;28;20148;-67
2023/08/18 06:32:16;;;;;;;11.40;8.73;;;;;;;17.90;100.00;101676.75;10501197;28;20067;-67
2023/08/18 06:37:16;;;;;;;14.25;8.60;;;;;;;17.85;100.00;101671.94;10499015;28;20119;-67
2023/08/18 06:42:16;;;;;;;21.65;9.80;;;;;;;17.86;100.00;101681.81;10498812;28;20037;-67
2023/08/18 06:47:17;;;;;;;13.27;9.70;;;;;;;17.91;100.00;101678.41;10498407;28;20415;-67
2023/08/18 06:52:17;;;;;;;12.25;9.68;;;;;;;18.14;100.00;101683.22;10499311;28;20119;-67
2023/08/18 06:57:18;;;;;;;10.13;7.97;;;;;;;18.32;100.00;101676.91;10497675;28;20052;-67
2023/08/18 07:02:18;;;;;;;11.35;9.88;;;;;;;18.59;100.00;101669.97;10498298;28;20078;-67
2023/08/18 07:07:19;;;;;;;9.48;8.60;;;;;;;18.83;100.00;101685.75;10498490;28;20483;-67
2023/08/18 07:12:19;;;;;;;13.40;9.73;;;;;;;18.88;100.00;101677.63;10498053;28;20050;-67
2023/08/18 07:17:19;;;;;;;19.52;9.95;;;;;;;19.10;100.00;101667.78;10515095;28;20417;-67
2023/08/18 07:22:20;;;;;;;10.25;8.65;;;;;;;19.42;100.00;101672.97;10499308;28;20150;-67
2023/08/18 07:27:20;;;;;;;12.80;9.90;;;;;;;19.62;100.00;101667.13;10497329;28;20479;-67
2023/08/18 07:32:21;;;;;;;11.18;9.90;;;;;;;20.01;100.00;101665.56;10498358;28;20033;-67
2023/08/18 07:37:21;;;;;;;10.60;8.77;;;;;;;20.38;100.00;101654.22;10496232;28;20520;-67
2023/08/18 07:42:21;;;;;;;11.23;8.50;;;;;;;21.99;100.00;101639.88;10494742;28;20066;-67
2023/08/18 07:47:22;;;;;;;14.10;9.60;;;;;;;23.20;100.00;101635.94;10496896;28;20036;-67
2023/08/18 07:52:22;;;;;;;10.27;8.50;;;;;;;23.10;100.00;101629.50;10495562;28;20144;-67
2023/08/18 07:57:23;;;;;;;16.30;10.18;;;;;;;23.40;100.00;101624.22;10512321;28;20033;-68
2023/08/18 08:02:23;;;;;;;9.98;8.95;;;;;;;24.45;93.62;101641.94;10495458;28;20230;-68
2023/08/18 08:07:24;;;;;;;9.93;8.40;;;;;;;25.21;88.33;101641.22;10496246;28;20043;-68
2023/08/18 08:12:24;;;;;;;11.18;10.07;;;;;;;23.53;94.40;101638.66;10494961;28;20109;-68
2023/08/18 08:17:26;;;;;;;16.05;10.27;;;;;;;23.68;97.47;101633.25;10496698;28;20115;-68
2023/08/18 08:22:26;;;;;;;12.30;10.73;;;;;;;24.50;89.68;101633.63;10495479;28;20037;-67
2023/08/18 08:27:27;;;;;;;11.40;10.30;;;;;;;23.71;92.88;101641.03;10495095;28;20040;-68
2023/08/18 08:32:27;;;;;;;16.27;12.57;;;;;;;22.80;98.88;101649.38;10495020;28;20032;-67
2023/08/18 08:37:27;;;;;;;14.32;11.50;;;;;;;22.48;100.00;101656.50;10494771;28;20087;-68
2023/08/18 08:42:28;;;;;;;13.38;11.95;;;;;;;23.63;97.22;101656.16;10510847;28;20044;-68
2023/08/18 08:47:29;;;;;;;25.83;12.40;;;;;;;23.47;99.60;101667.38;10493673;28;20161;-68
2023/08/18 08:52:31;;;;;;;12.63;11.40;;;;;;;23.14;100.00;101674.84;10476833;28;20039;-68
2023/08/18 08:57:31;;;;;;;23.45;11.40;;;;;;;22.87;100.00;101664.63;10476806;28;20376;-67
2023/08/18 09:02:32;;;;;;;18.80;13.05;;;;;;;22.90;100.00;101658.56;10494023;28;20059;-68
2023/08/18 09:07:32;;;;;;;15.45;9.65;;;;;;;23.20;100.00;101662.75;10494785;28;20048;-68
2023/08/18 09:12:33;;;;;;;15.70;10.45;;;;;;;23.23;100.00;101659.47;10494864;28;20037;-68
2023/08/18 09:17:33;;;;;;;17.25;14.20;;;;;;;23.87;97.71;101662.16;10492433;28;20088;-67
2023/08/18 09:22:33;;;;;;;13.43;11.80;;;;;;;24.00;95.85;101643.41;10493698;28;20032;-68
2023/08/18 09:27:34;;;;;;;12.40;11.00;;;;;;;25.78;92.19;101633.63;10493543;28;20495;-68
2023/08/18 09:32:37;;;;;;;12.98;11.18;;;;;;;26.76;82.09;101626.53;10494401;28;20033;-68
2023/08/18 09:37:38;;;;;;;13.27;11.85;;;;;;;25.62;82.35;101638.38;10494647;28;20417;-68
2023/08/18 09:42:39;;;;;;;13.95;12.50;;;;;;;24.51;89.12;101646.38;10494207;28;20052;-67
2023/08/18 09:47:40;;;;;;;14.57;12.65;;;;;;;24.25;96.47;101646.28;10493479;28;20177;-68
2023/08/18 09:52:41;;;;;;;18.15;14.85;;;;;;;23.86;94.43;101643.84;10494386;28;20068;-67
2023/08/18 09:58:03;;;;;;;15.27;13.68;;;;;;;23.95;95.18;101638.66;10494193;28;20036;-68
2023/08/18 10:03:04;;;;;;;14.85;13.10;;;;;;;23.98;97.40;101615.97;10500498;28;20452;-68
2023/08/18 10:08:04;;;;;;;19.42;14.27;;;;;;;24.14;96.54;101627.94;10482693;28;20076;-68
2023/08/18 10:13:05;;;;;;;15.38;13.77;;;;;;;24.06;95.19;101628.50;10499182;28;20371;-68
2023/08/18 10:18:09;;;;;;;16.90;15.05;;;;;;;24.04;95.29;101616.84;10482784;28;20035;-68
2023/08/18 10:23:09;;;;;;;23.85;14.38;;;;;;;24.69;95.90;101592.38;10499654;28;20360;-68
2023/08/18 10:28:10;;;;;;;17.42;14.43;;;;;;;25.32;90.52;101586.59;10481357;28;20036;-68
2023/08/18 10:33:11;;;;;;;16.60;13.38;;;;;;;25.32;89.11;101584.66;10499501;28;20074;-68
2023/08/18 10:38:11;;;;;;;17.90;14.90;;;;;;;25.19;89.41;101591.59;10499269;28;20127;-68
2023/08/18 10:43:13;;;;;;;19.08;13.95;;;;;;;25.03;88.63;101603.78;10497481;28;20086;-68
2023/08/18 10:48:14;;;;;;;23.60;15.10;;;;;;;24.79;90.88;101598.78;10480933;28;20075;-68
2023/08/18 10:53:15;;;;;;;17.60;15.73;;;;;;;25.06;89.30;101576.34;10498931;28;20062;-67
2023/08/18 10:58:15;;;;;;;21.77;17.40;;;;;;;25.82;85.48;101576.50;10480184;28;20078;-68
2023/08/18 11:03:16;;;;;;;24.08;15.23;;;;;;;26.50;81.29;101562.81;10497355;28;20498;-68
2023/08/18 11:08:16;;;;;;;17.85;16.10;;;;;;;27.31;74.26;101566.00;10494979;28;20092;-68
2023/08/18 11:13:24;;;;;;;16.58;14.90;;;;;;;28.43;72.87;101547.94;10479565;28;20039;-68
2023/08/18 11:18:24;;;;;;;16.02;14.43;;;;;;;28.07;70.39;101549.53;10497452;28;20029;-68
2023/08/18 11:23:25;;;;;;;21.00;18.67;;;;;;;27.03;75.15;101531.53;10497524;28;20468;-68
2023/08/18 11:28:25;;;;;;;19.23;17.17;;;;;;;27.28;75.05;101531.31;10496791;28;20353;-68
2023/08/18 11:33:26;;;;;;;27.00;17.23;;;;;;;27.35;75.51;101528.16;10497099;28;20399;-68
2023/08/18 11:38:26;;;;;;;17.92;15.90;;;;;;;26.44;80.53;101514.75;10497087;28;20139;-68
2023/08/18 11:43:27;;;;;;;20.10;17.38;;;;;;;28.14;72.14;101511.00;10496111;28;20040;-68
2023/08/18 11:48:29;;;;;;;16.35;14.45;;;;;;;26.55;80.71;101500.84;10496068;28;20059;-68
2023/08/18 11:53:30;;;;;;;22.00;16.98;;;;;;;25.95;85.58;101506.50;10495337;28;20364;-68
2023/08/18 11:58:33;;;;;;;21.52;16.55;;;;;;;25.46;88.80;101490.59;10496136;28;20146;-68
2023/08/18 12:03:33;;;;;;;16.20;14.55;;;;;;;27.34;83.39;101501.47;10493831;28;20464;-68
2023/08/18 12:08:34;;;;;;;22.38;16.83;;;;;;;28.62;71.54;101494.09;10494014;28;20029;-68
2023/08/18 12:13:34;;;;;;;26.50;18.15;;;;;;;28.63;71.75;101481.84;10495185;28;20060;-68
2023/08/18 12:18:35;;;;;;;22.27;16.15;;;;;;;28.49;73.47;101479.84;10495367;28;20056;-68
2023/08/18 12:23:35;;;;;;;18.08;16.13;;;;;;;28.84;69.67;101476.72;10494904;28;20487;-68
2023/08/18 12:28:36;;;;;;;16.33;14.68;;;;;;;29.54;72.35;101482.03;10510332;28;20182;-68
2023/08/18 12:33:36;;;;;;;21.85;16.20;;;;;;;29.74;67.25;101483.63;10494871;28;20058;-68
2023/08/18 12:38:37;;;;;;;17.27;15.68;;;;;;;29.56;63.75;101479.78;10494158;28;20085;-68
2023/08/18 12:43:37;;;;;;;25.00;18.67;;;;;;;29.29;65.70;101489.00;10495638;28;20119;-69
2023/08/18 12:48:38;;;;;;;18.20;15.93;;;;;;;29.62;68.87;101466.56;10495943;28;20064;-68
2023/08/18 12:53:38;;;;;;;20.00;14.23;;;;;;;29.91;66.44;101474.56;10495403;28;20472;-68
2023/08/18 12:58:39;;;;;;;20.50;13.50;;;;;;;30.39;69.00;101475.97;10494552;28;20111;-69
2023/08/18 13:03:40;;;;;;;18.17;16.33;;;;;;;30.26;62.02;101474.91;10509476;28;20057;-68
2023/08/18 13:08:40;;;;;;;15.38;13.88;;;;;;;30.19;65.71;101475.34;10492102;28;20056;-68
2023/08/18 13:13:41;;;;;;;21.90;16.88;;;;;;;29.76;64.14;101470.16;10494082;28;20040;-68
2023/08/18 13:18:41;;;;;;;17.58;15.80;;;;;;;29.16;68.14;101470.28;10493876;28;20064;-68
2023/08/18 13:23:42;;;;;;;20.63;15.73;;;;;;;29.00;69.48;101468.91;10492767;28;20424;-68
2023/08/18 13:28:42;;;;;;;19.92;15.20;;;;;;;28.85;70.16;101465.28;10493883;28;20024;-69
2023/08/18 13:33:43;;;;;;;18.15;16.33;;;;;;;29.14;69.76;101450.25;10499436;28;20029;-68
2023/08/18 13:38:43;;;;;;;19.05;15.60;;;;;;;29.98;66.28;101451.78;10500514;28;20032;-68
2023/08/18 13:43:44;;;;;;;21.90;15.57;;;;;;;29.63;69.13;101440.31;10501521;28;20460;-68
2023/08/18 13:48:44;;;;;;;16.52;14.95;;;;;;;29.38;68.27;101439.69;10499768;28;20032;-68
2023/08/18 13:53:44;;;;;;;21.25;16.52;;;;;;;29.64;67.03;101430.78;10500972;28;20032;-68
2023/08/18 13:58:45;;;;;;;18.92;17.23;;;;;;;28.84;71.96;101430.16;10500366;28;20040;-68
2023/08/18 14:03:45;;;;;;;15.82;14.23;;;;;;;28.91;74.28;101432.56;10499298;28;20043;-68
2023/08/18 14:08:46;;;;;;;15.60;11.93;;;;;;;29.11;73.22;101434.97;10502012;28;20473;-68
2023/08/18 14:13:46;;;;;;;20.70;13.70;;;;;;;29.39;69.41;101429.38;10501438;28;20099;-68
2023/08/18 14:18:46;;;;;;;21.45;15.70;;;;;;;29.55;68.98;101425.09;10500430;28;20040;-68
2023/08/18 14:23:47;;;;;;;18.20;16.50;;;;;;;29.40;73.20;101419.84;10464898;28;20032;-68
2023/08/18 14:28:47;;;;;;;20.05;16.48;;;;;;;29.46;68.70;101418.59;10500691;28;20092;-70
2023/08/18 14:33:48;;;;;;;25.80;16.05;;;;;;;29.10;69.31;101411.00;10499844;28;20115;-68
2023/08/18 14:38:48;;;;;;;19.25;16.90;;;;;;;28.62;73.83;101397.44;10499708;28;20119;-68
2023/08/18 14:43:48;;;;;;;19.95;17.60;;;;;;;27.76;77.82;101411.63;10496814;28;20040;-68
2023/08/18 14:48:49;;;;;;;24.27;18.23;;;;;;;27.21;82.87;101410.41;10498789;28;20036;-68
2023/08/18 14:53:49;;;;;;;21.20;15.15;;;;;;;27.31;83.21;101401.94;10498772;28;20203;-68
2023/08/18 14:58:50;;;;;;;19.38;17.08;;;;;;;27.05;85.36;101402.22;10499344;28;20120;-68
2023/08/18 15:03:50;;;;;;;18.55;16.88;;;;;;;26.82;86.74;101400.28;10497540;28;20502;-68
2023/08/18 15:08:51;;;;;;;20.70;17.70;;;;;;;26.80;87.16;101394.19;10498181;28;20044;-68
2023/08/18 15:13:51;;;;;;;18.30;16.42;;;;;;;26.90;87.01;101383.78;10496531;28;20064;-68
2023/08/18 15:18:52;;;;;;;23.25;16.08;;;;;;;26.92;88.55;101379.88;10496822;28;20051;-68
2023/08/18 15:23:52;;;;;;;22.38;18.27;;;;;;;26.99;87.46;101372.81;10498020;28;20029;-68
2023/08/18 15:28:52;;;;;;;19.58;17.60;;;;;;;27.01;87.54;101375.31;10497452;28;20064;-68
2023/08/18 15:33:53;;;;;;;19.92;15.90;;;;;;;26.83;89.46;101371.34;10497325;28;20464;-68
2023/08/18 15:38:53;;;;;;;16.25;14.70;;;;;;;26.91;89.08;101362.38;10497366;28;20048;-68
2023/08/18 15:43:54;;;;;;;16.92;15.30;;;;;;;26.69;89.45;101359.31;10494683;28;20423;-68
2023/08/18 15:48:54;;;;;;;23.13;16.70;;;;;;;26.42;91.55;101352.34;10496607;28;20079;-68
2023/08/18 15:53:55;;;;;;;16.30;14.77;;;;;;;26.25;95.23;101332.50;10496217;28;20032;-68
2023/08/18 15:58:57;;;;;;;21.15;16.27;;;;;;;26.21;96.81;101326.72;10495040;28;20063;-68
2023/08/18 16:03:57;;;;;;;21.25;15.55;;;;;;;26.45;94.52;101326.75;10495625;28;20040;-68
2023/08/18 16:08:58;;;;;;;17.88;15.80;;;;;;;26.43;94.06;101334.56;10512526;28;20357;-68
2023/08/18 16:13:58;;;;;;;17.20;14.98;;;;;;;26.34;95.35;101336.31;10495408;28;20123;-68
2023/08/18 16:18:59;;;;;;;18.17;16.27;;;;;;;26.35;96.72;101321.28;10493418;28;20120;-68
2023/08/18 16:23:59;;;;;;;20.35;17.63;;;;;;;26.33;96.74;101324.38;10477657;28;20060;-68
2023/08/18 16:28:59;;;;;;;16.42;13.60;;;;;;;26.53;96.35;101337.25;10495451;28;20045;-68
2023/08/18 16:34:00;;;;;;;19.58;15.57;;;;;;;26.71;93.88;101348.72;10459912;28;20442;-68
2023/08/18 16:39:00;;;;;;;18.75;16.83;;;;;;;26.37;94.92;101349.59;10494452;28;20075;-68
2023/08/18 16:44:01;;;;;;;22.05;17.50;;;;;;;26.20;97.00;101348.09;10495090;28;20389;-68
2023/08/18 16:49:02;;;;;;;20.33;18.02;;;;;;;25.92;98.41;101335.03;10493480;28;20471;-68
2023/08/18 16:54:02;;;;;;;22.38;18.38;;;;;;;25.72;100.00;101320.19;10493303;28;20510;-68
2023/08/18 16:59:03;;;;;;;20.88;18.67;;;;;;;25.46;100.00;101316.75;10494637;28;20028;-68
2023/08/18 17:04:04;;;;;;;23.98;19.83;;;;;;;25.34;100.00;101310.75;10492486;28;20044;-68
2023/08/18 17:09:05;;;;;;;21.00;17.40;;;;;;;25.16;100.00;101306.69;10483293;28;20113;-68
2023/08/18 17:14:06;;;;;;;23.45;18.58;;;;;;;25.04;100.00;101303.38;10504163;28;20032;-68
2023/08/18 17:19:07;;;;;;;34.17;18.77;;;;;;;25.05;100.00;101293.97;10500336;28;20032;-68
2023/08/18 17:24:07;;;;;;;22.70;18.92;;;;;;;25.03;100.00;101297.00;10502426;28;20115;-68
2023/08/18 17:29:08;;;;;;;27.40;18.73;;;;;;;25.11;100.00;101303.91;10500648;28;20060;-68
2023/08/18 17:34:08;;;;;;;21.77;18.77;;;;;;;25.19;100.00;101299.75;10499958;28;20120;-68
2023/08/18 17:39:09;;;;;;;24.05;18.33;;;;;;;25.41;100.00;101302.09;10500799;28;20033;-68
2023/08/18 17:44:10;;;;;;;22.48;20.05;;;;;;;25.61;100.00;101295.56;10501414;28;20453;-68
2023/08/18 17:49:10;;;;;;;20.13;17.30;;;;;;;25.54;100.00;101267.34;10501169;28;20032;-68
2023/08/18 17:54:11;;;;;;;21.15;16.77;;;;;;;25.38;100.00;101263.84;10502100;28;20036;-68
2023/08/18 17:59:11;;;;;;;16.77;14.95;;;;;;;25.20;100.00;101266.19;10499907;28;20469;-68
2023/08/18 18:04:11;;;;;;;18.08;16.25;;;;;;;24.98;100.00;101274.03;10500809;28;20166;-68
2023/08/18 18:09:12;;;;;;;23.17;19.63;;;;;;;24.83;100.00;101275.78;10499536;28;20332;-68
2023/08/18 18:14:13;;;;;;;26.48;18.88;;;;;;;24.68;100.00;101283.31;10500098;28;20040;-68
2023/08/18 18:19:15;;;;;;;21.48;18.88;;;;;;;24.55;100.00;101279.22;10497985;28;20040;-68
2023/08/18 18:24:15;;;;;;;27.05;17.95;;;;;;;24.45;100.00;101284.78;10501822;28;20068;-68
2023/08/18 18:29:16;;;;;;;25.15;20.38;;;;;;;24.31;100.00;101285.34;10501895;28;20143;-68
2023/08/18 18:34:17;;;;;;;20.67;18.15;;;;;;;24.25;100.00;101300.31;10499690;28;20051;-68
2023/08/18 18:39:17;;;;;;;24.88;20.98;;;;;;;24.20;100.00;101286.47;10497355;28;20039;-66
2023/08/18 18:44:17;;;;;;;21.75;18.10;;;;;;;24.22;100.00;101286.19;10498691;28;20056;-68
2023/08/18 18:49:18;;;;;;;22.83;17.25;;;;;;;24.14;100.00;101282.06;10498800;28;20116;-68
2023/08/18 18:54:19;;;;;;;26.88;20.17;;;;;;;24.09;100.00;101282.06;10499761;28;20167;-68
2023/08/18 18:59:19;;;;;;;19.48;17.38;;;;;;;23.99;100.00;101271.00;10498894;28;20431;-68
2023/08/18 19:04:20;;;;;;;19.67;17.67;;;;;;;23.92;100.00;101301.72;10496984;28;20052;-68
2023/08/18 19:09:20;;;;;;;22.65;17.73;;;;;;;23.81;100.00;101303.66;10498427;28;20051;-68
2023/08/18 19:14:21;;;;;;;18.10;16.05;;;;;;;23.72;100.00;101310.03;10496290;28;20135;-68
2023/08/18 19:19:21;;;;;;;21.30;18.40;;;;;;;23.61;100.00;101298.94;10496301;28;20420;-68
2023/08/18 19:24:22;;;;;;;25.63;19.92;;;;;;;23.49;100.00;101292.00;10498370;28;20127;-68
2023/08/18 19:29:22;;;;;;;20.45;18.40;;;;;;;23.39;100.00;101296.41;10497254;28;20021;-68
2023/08/18 19:34:22;;;;;;;19.15;16.85;;;;;;;23.33;100.00;101299.44;10497132;28;20060;-68
2023/08/18 19:39:23;;;;;;;20.95;18.60;;;;;;;23.28;100.00;101294.72;10495369;28;20028;-68
2023/08/18 19:44:23;;;;;;;25.83;18.50;;;;;;;23.25;100.00;101297.19;10497649;28;20068;-67
2023/08/18 19:49:24;;;;;;;27.45;20.65;;;;;;;23.21;100.00;101283.94;10496798;28;20036;-67
2023/08/18 19:54:24;;;;;;;21.52;17.77;;;;;;;23.22;100.00;101290.28;10496100;28;20108;-67
2023/08/18 19:59:27;;;;;;;26.38;19.40;;;;;;;23.25;100.00;101284.22;10495791;28;20048;-67
2023/08/18 20:04:27;;;;;;;33.20;19.77;;;;;;;23.29;100.00;101279.78;10495834;28;20492;-67
2023/08/18 20:09:28;;;;;;;22.08;19.05;;;;;;;23.31;100.00;101274.00;10495694;28;20025;-67
2023/08/18 20:14:28;;;;;;;29.65;20.98;;;;;;;23.32;100.00;101267.38;10494887;28;20158;-67
2023/08/18 20:19:29;;;;;;;25.48;20.00;;;;;;;23.27;100.00;101267.38;10496177;28;20369;-67
2023/08/18 20:24:30;;;;;;;23.27;19.75;;;;;;;23.21;100.00;101263.75;10494526;28;20479;-67
2023/08/18 20:29:31;;;;;;;26.50;20.80;;;;;;;23.17;100.00;101270.94;10494104;28;20036;-67
2023/08/18 20:34:31;;;;;;;21.92;19.60;;;;;;;23.13;100.00;101258.75;10494132;28;20083;-67
2023/08/18 20:39:32;;;;;;;33.28;23.27;;;;;;;23.04;100.00;101250.19;10494944;28;20051;-67
2023/08/18 20:44:32;;;;;;;34.70;23.27;;;;;;;23.00;100.00;101262.03;10495060;28;20028;-67
2023/08/18 20:49:33;;;;;;;29.05;23.33;;;;;;;22.91;100.00;101259.78;10493505;28;20508;-67
2023/08/18 20:54:33;;;;;;;29.83;22.48;;;;;;;22.83;100.00;101265.84;10494634;28;20463;-66
2023/08/18 20:59:33;;;;;;;30.23;23.73;;;;;;;22.81;100.00;101262.50;10494282;28;20033;-67
2023/08/18 21:04:34;;;;;;;40.97;27.13;;;;;;;22.74;100.00;101267.44;10475039;28;20091;-67
2023/08/18 21:09:34;;;;;;;26.38;22.52;;;;;;;22.71;100.00;101263.28;10493437;28;20029;-68
2023/08/18 21:14:35;;;;;;;33.70;23.27;;;;;;;22.69;100.00;101257.22;10494567;28;20037;-67
2023/08/18 21:19:35;;;;;;;41.45;23.33;;;;;;;22.66;100.00;101255.00;10494561;28;20111;-67
2023/08/18 21:24:35;;;;;;;31.80;25.33;;;;;;;22.68;100.00;101247.25;10493514;28;20037;-67
2023/08/18 21:29:36;;;;;;;36.63;24.08;;;;;;;22.71;100.00;101240.38;10493372;28;20369;-67
2023/08/18 21:34:36;;;;;;;37.03;24.80;;;;;;;22.73;100.00;101250.06;10493575;28;20040;-67
2023/08/18 21:39:37;;;;;;;28.45;25.38;;;;;;;22.77;100.00;101242.06;10492502;28;20523;-67
2023/08/18 21:44:37;;;;;;;35.90;27.80;;;;;;;22.74;100.00;101235.16;10492929;28;20116;-67
2023/08/18 21:49:37;;;;;;;31.73;25.80;;;;;;;22.75;100.00;101236.00;10493071;28;20111;-67
2023/08/18 21:54:38;;;;;;;37.42;29.67;;;;;;;22.74;100.00;101228.78;10500008;28;20040;-67
2023/08/18 21:59:39;;;;;;;31.13;24.70;;;;;;;22.74;100.00;101231.56;10499654;28;20048;-67
2023/08/18 22:04:40;;;;;;;31.00;25.75;;;;;;;22.82;100.00;101224.69;10500643;28;20036;-67
2023/08/18 22:09:40;;;;;;;36.05;26.35;;;;;;;22.82;100.00;101216.41;10500590;28;20040;-67
2023/08/18 22:14:41;;;;;;;32.53;27.15;;;;;;;22.87;100.00;101216.41;10500378;28;20090;-67
2023/08/18 22:19:41;;;;;;;29.13;25.33;;;;;;;22.87;100.00;101210.88;10499675;28;20045;-67
2023/08/18 22:24:43;;;;;;;34.03;27.42;;;;;;;22.86;100.00;101206.47;10482516;28;20119;-67